sensor_id;sensor_type;location;lat;lon;timestamp;P1;durP1;ratioP1;P2;durP2;ratioP2
48805;SDS011;34625;47.176;27.548;2023-03-08T00:00:46;12.75;;;6.90;;
48805;SDS011;34625;47.176;27.548;2023-03-08T00:03:12;9.38;;;5.60;;
48805;SDS011;34625;47.176;27.548;2023-03-08T00:05:39;8.65;;;5.78;;
48805;SDS011;34625;47.176;27.548;2023-03-08T00:08:06;11.77;;;6.10;;
48805;SDS011;34625;47.176;27.548;2023-03-08T00:10:32;8.13;;;5.53;;
48805;SDS011;34625;47.176;27.548;2023-03-08T00:12:58;8.00;;;4.93;;
48805;SDS011;34625;47.176;27.548;2023-03-08T00:15:24;7.68;;;5.43;;
48805;SDS011;34625;47.176;27.548;2023-03-08T00:17:50;9.50;;;5.95;;
48805;SDS011;34625;47.176;27.548;2023-03-08T00:20:16;12.13;;;5.88;;
48805;SDS011;34625;47.176;27.548;2023-03-08T00:22:42;11.73;;;6.97;;
48805;SDS011;34625;47.176;27.548;2023-03-08T00:25:09;11.80;;;6.35;;
48805;SDS011;34625;47.176;27.548;2023-03-08T00:27:35;11.15;;;7.13;;
48805;SDS011;34625;47.176;27.548;2023-03-08T00:30:05;10.60;;;6.68;;
48805;SDS011;34625;47.176;27.548;2023-03-08T00:32:31;13.43;;;7.82;;
48805;SDS011;34625;47.176;27.548;2023-03-08T00:34:57;11.68;;;7.00;;
48805;SDS011;34625;47.176;27.548;2023-03-08T00:37:23;12.10;;;7.10;;
48805;SDS011;34625;47.176;27.548;2023-03-08T00:39:50;9.07;;;6.35;;
48805;SDS011;34625;47.176;27.548;2023-03-08T00:42:17;13.00;;;7.50;;
48805;SDS011;34625;47.176;27.548;2023-03-08T00:44:46;12.18;;;7.25;;
48805;SDS011;34625;47.176;27.548;2023-03-08T00:47:13;10.82;;;6.80;;
48805;SDS011;34625;47.176;27.548;2023-03-08T00:49:41;11.13;;;7.13;;
48805;SDS011;34625;47.176;27.548;2023-03-08T00:52:08;10.25;;;6.68;;
48805;SDS011;34625;47.176;27.548;2023-03-08T00:54:35;10.38;;;6.50;;
48805;SDS011;34625;47.176;27.548;2023-03-08T00:57:01;10.88;;;7.05;;
48805;SDS011;34625;47.176;27.548;2023-03-08T00:59:27;13.70;;;7.15;;
48805;SDS011;34625;47.176;27.548;2023-03-08T01:01:55;9.52;;;6.85;;
48805;SDS011;34625;47.176;27.548;2023-03-08T01:04:22;14.50;;;7.15;;
48805;SDS011;34625;47.176;27.548;2023-03-08T01:06:50;11.35;;;6.32;;
48805;SDS011;34625;47.176;27.548;2023-03-08T01:09:16;8.93;;;6.47;;
48805;SDS011;34625;47.176;27.548;2023-03-08T01:11:41;10.35;;;6.53;;
48805;SDS011;34625;47.176;27.548;2023-03-08T01:14:08;10.18;;;6.63;;
48805;SDS011;34625;47.176;27.548;2023-03-08T01:16:34;14.90;;;6.30;;
48805;SDS011;34625;47.176;27.548;2023-03-08T01:19:02;7.35;;;5.63;;
48805;SDS011;34625;47.176;27.548;2023-03-08T01:21:30;9.18;;;5.60;;
48805;SDS011;34625;47.176;27.548;2023-03-08T01:23:56;7.93;;;5.55;;
48805;SDS011;34625;47.176;27.548;2023-03-08T01:26:23;8.68;;;5.13;;
48805;SDS011;34625;47.176;27.548;2023-03-08T01:28:54;6.35;;;4.97;;
48805;SDS011;34625;47.176;27.548;2023-03-08T01:31:22;7.13;;;5.15;;
48805;SDS011;34625;47.176;27.548;2023-03-08T01:33:51;7.15;;;5.32;;
48805;SDS011;34625;47.176;27.548;2023-03-08T01:36:19;7.55;;;4.78;;
48805;SDS011;34625;47.176;27.548;2023-03-08T01:38:47;9.40;;;5.03;;
48805;SDS011;34625;47.176;27.548;2023-03-08T01:41:24;7.95;;;5.53;;
48805;SDS011;34625;47.176;27.548;2023-03-08T01:43:52;9.63;;;5.18;;
48805;SDS011;34625;47.176;27.548;2023-03-08T01:46:26;10.13;;;5.30;;
48805;SDS011;34625;47.176;27.548;2023-03-08T01:49:09;6.60;;;4.80;;
48805;SDS011;34625;47.176;27.548;2023-03-08T01:51:46;6.68;;;4.78;;
48805;SDS011;34625;47.176;27.548;2023-03-08T01:57:14;7.38;;;5.15;;
48805;SDS011;34625;47.176;27.548;2023-03-08T01:59:54;6.57;;;4.47;;
48805;SDS011;34625;47.176;27.548;2023-03-08T02:02:24;8.00;;;4.53;;
48805;SDS011;34625;47.176;27.548;2023-03-08T02:04:55;5.00;;;3.75;;
48805;SDS011;34625;47.176;27.548;2023-03-08T02:07:21;6.00;;;3.88;;
48805;SDS011;34625;47.176;27.548;2023-03-08T02:09:48;5.30;;;3.97;;
48805;SDS011;34625;47.176;27.548;2023-03-08T02:12:15;4.85;;;3.80;;
48805;SDS011;34625;47.176;27.548;2023-03-08T02:14:41;5.15;;;4.28;;
48805;SDS011;34625;47.176;27.548;2023-03-08T02:17:09;5.40;;;3.92;;
48805;SDS011;34625;47.176;27.548;2023-03-08T02:19:44;5.63;;;4.10;;
48805;SDS011;34625;47.176;27.548;2023-03-08T02:22:38;5.68;;;3.88;;
48805;SDS011;34625;47.176;27.548;2023-03-08T02:25:24;6.90;;;4.15;;
48805;SDS011;34625;47.176;27.548;2023-03-08T02:27:52;5.68;;;4.00;;
48805;SDS011;34625;47.176;27.548;2023-03-08T02:30:26;5.18;;;4.03;;
48805;SDS011;34625;47.176;27.548;2023-03-08T02:32:59;7.30;;;4.43;;
48805;SDS011;34625;47.176;27.548;2023-03-08T02:35:27;4.75;;;4.10;;
48805;SDS011;34625;47.176;27.548;2023-03-08T02:37:54;5.35;;;4.15;;
48805;SDS011;34625;47.176;27.548;2023-03-08T02:40:20;6.15;;;4.50;;
48805;SDS011;34625;47.176;27.548;2023-03-08T02:42:46;5.22;;;3.92;;
48805;SDS011;34625;47.176;27.548;2023-03-08T02:45:12;6.70;;;4.18;;
48805;SDS011;34625;47.176;27.548;2023-03-08T02:47:38;5.78;;;3.90;;
48805;SDS011;34625;47.176;27.548;2023-03-08T02:50:04;4.75;;;3.83;;
48805;SDS011;34625;47.176;27.548;2023-03-08T02:52:31;6.22;;;4.13;;
48805;SDS011;34625;47.176;27.548;2023-03-08T02:54:57;4.50;;;3.67;;
48805;SDS011;34625;47.176;27.548;2023-03-08T02:57:24;5.40;;;3.60;;
48805;SDS011;34625;47.176;27.548;2023-03-08T02:59:51;3.85;;;3.40;;
48805;SDS011;34625;47.176;27.548;2023-03-08T03:02:17;5.05;;;3.90;;
48805;SDS011;34625;47.176;27.548;2023-03-08T03:04:43;4.47;;;3.33;;
48805;SDS011;34625;47.176;27.548;2023-03-08T03:07:10;4.18;;;3.60;;
48805;SDS011;34625;47.176;27.548;2023-03-08T03:09:37;5.03;;;3.45;;
48805;SDS011;34625;47.176;27.548;2023-03-08T03:12:03;5.30;;;3.50;;
48805;SDS011;34625;47.176;27.548;2023-03-08T03:14:31;3.40;;;3.10;;
48805;SDS011;34625;47.176;27.548;2023-03-08T03:16:58;4.78;;;3.08;;
48805;SDS011;34625;47.176;27.548;2023-03-08T03:19:24;4.65;;;3.13;;
48805;SDS011;34625;47.176;27.548;2023-03-08T03:21:50;4.35;;;3.15;;
48805;SDS011;34625;47.176;27.548;2023-03-08T03:24:16;4.18;;;3.00;;
48805;SDS011;34625;47.176;27.548;2023-03-08T03:26:51;3.28;;;2.70;;
48805;SDS011;34625;47.176;27.548;2023-03-08T03:29:18;3.15;;;2.85;;
48805;SDS011;34625;47.176;27.548;2023-03-08T03:31:49;3.50;;;2.63;;
48805;SDS011;34625;47.176;27.548;2023-03-08T03:34:15;3.40;;;2.70;;
48805;SDS011;34625;47.176;27.548;2023-03-08T03:36:43;4.22;;;3.13;;
48805;SDS011;34625;47.176;27.548;2023-03-08T03:39:09;5.75;;;3.90;;
48805;SDS011;34625;47.176;27.548;2023-03-08T03:41:37;5.15;;;3.63;;
48805;SDS011;34625;47.176;27.548;2023-03-08T03:44:08;4.43;;;3.25;;
48805;SDS011;34625;47.176;27.548;2023-03-08T03:46:34;4.38;;;3.40;;
48805;SDS011;34625;47.176;27.548;2023-03-08T03:49:03;5.22;;;3.55;;
48805;SDS011;34625;47.176;27.548;2023-03-08T03:51:34;4.57;;;3.47;;
48805;SDS011;34625;47.176;27.548;2023-03-08T03:54:22;4.82;;;3.80;;
48805;SDS011;34625;47.176;27.548;2023-03-08T03:56:49;5.05;;;3.88;;
48805;SDS011;34625;47.176;27.548;2023-03-08T03:59:19;6.75;;;3.85;;
48805;SDS011;34625;47.176;27.548;2023-03-08T04:01:45;5.07;;;3.58;;
48805;SDS011;34625;47.176;27.548;2023-03-08T04:04:18;5.78;;;3.90;;
48805;SDS011;34625;47.176;27.548;2023-03-08T04:06:45;8.25;;;4.18;;
48805;SDS011;34625;47.176;27.548;2023-03-08T04:09:16;7.72;;;4.20;;
48805;SDS011;34625;47.176;27.548;2023-03-08T04:11:48;4.60;;;4.00;;
48805;SDS011;34625;47.176;27.548;2023-03-08T04:14:18;7.03;;;3.88;;
48805;SDS011;34625;47.176;27.548;2023-03-08T04:16:44;5.15;;;3.67;;
48805;SDS011;34625;47.176;27.548;2023-03-08T04:19:18;4.30;;;3.63;;
48805;SDS011;34625;47.176;27.548;2023-03-08T04:21:49;5.28;;;4.40;;
48805;SDS011;34625;47.176;27.548;2023-03-08T04:24:18;7.90;;;4.15;;
48805;SDS011;34625;47.176;27.548;2023-03-08T04:26:47;8.02;;;4.20;;
48805;SDS011;34625;47.176;27.548;2023-03-08T04:29:16;5.75;;;4.43;;
48805;SDS011;34625;47.176;27.548;2023-03-08T04:31:42;5.00;;;3.90;;
48805;SDS011;34625;47.176;27.548;2023-03-08T04:34:12;5.25;;;3.50;;
48805;SDS011;34625;47.176;27.548;2023-03-08T04:36:39;5.25;;;3.25;;
48805;SDS011;34625;47.176;27.548;2023-03-08T04:39:06;4.57;;;3.38;;
48805;SDS011;34625;47.176;27.548;2023-03-08T04:41:33;8.05;;;4.05;;
48805;SDS011;34625;47.176;27.548;2023-03-08T04:44:08;4.68;;;3.40;;
48805;SDS011;34625;47.176;27.548;2023-03-08T04:46:39;5.43;;;3.20;;
48805;SDS011;34625;47.176;27.548;2023-03-08T04:49:06;6.22;;;3.90;;
48805;SDS011;34625;47.176;27.548;2023-03-08T04:51:38;4.60;;;3.43;;
48805;SDS011;34625;47.176;27.548;2023-03-08T04:54:06;4.15;;;3.17;;
48805;SDS011;34625;47.176;27.548;2023-03-08T04:56:36;7.30;;;4.10;;
48805;SDS011;34625;47.176;27.548;2023-03-08T04:59:03;6.05;;;4.18;;
48805;SDS011;34625;47.176;27.548;2023-03-08T05:01:29;3.30;;;3.00;;
48805;SDS011;34625;47.176;27.548;2023-03-08T05:03:56;5.78;;;4.10;;
48805;SDS011;34625;47.176;27.548;2023-03-08T05:06:30;7.10;;;3.40;;
48805;SDS011;34625;47.176;27.548;2023-03-08T05:08:56;7.43;;;4.10;;
48805;SDS011;34625;47.176;27.548;2023-03-08T05:11:24;6.93;;;3.80;;
48805;SDS011;34625;47.176;27.548;2023-03-08T05:13:52;7.25;;;4.30;;
48805;SDS011;34625;47.176;27.548;2023-03-08T05:16:20;6.05;;;4.25;;
48805;SDS011;34625;47.176;27.548;2023-03-08T05:18:46;8.82;;;3.75;;
48805;SDS011;34625;47.176;27.548;2023-03-08T05:21:15;4.97;;;3.22;;
48805;SDS011;34625;47.176;27.548;2023-03-08T05:23:46;6.55;;;3.65;;
48805;SDS011;34625;47.176;27.548;2023-03-08T05:26:15;4.70;;;3.40;;
48805;SDS011;34625;47.176;27.548;2023-03-08T05:28:42;6.68;;;4.72;;
48805;SDS011;34625;47.176;27.548;2023-03-08T05:33:41;8.07;;;4.05;;
48805;SDS011;34625;47.176;27.548;2023-03-08T05:36:11;7.50;;;3.88;;
48805;SDS011;34625;47.176;27.548;2023-03-08T05:38:39;6.88;;;4.03;;
48805;SDS011;34625;47.176;27.548;2023-03-08T05:41:10;7.82;;;4.45;;
48805;SDS011;34625;47.176;27.548;2023-03-08T05:43:40;7.30;;;4.28;;
48805;SDS011;34625;47.176;27.548;2023-03-08T05:46:15;8.55;;;4.40;;
48805;SDS011;34625;47.176;27.548;2023-03-08T05:48:43;8.30;;;4.20;;
48805;SDS011;34625;47.176;27.548;2023-03-08T05:51:11;10.48;;;5.28;;
48805;SDS011;34625;47.176;27.548;2023-03-08T05:53:39;6.97;;;4.13;;
48805;SDS011;34625;47.176;27.548;2023-03-08T05:58:47;5.68;;;3.85;;
48805;SDS011;34625;47.176;27.548;2023-03-08T06:01:18;6.78;;;4.18;;
48805;SDS011;34625;47.176;27.548;2023-03-08T06:03:47;5.80;;;4.07;;
48805;SDS011;34625;47.176;27.548;2023-03-08T06:06:16;9.15;;;5.28;;
48805;SDS011;34625;47.176;27.548;2023-03-08T06:08:44;6.93;;;5.00;;
48805;SDS011;34625;47.176;27.548;2023-03-08T06:11:11;6.68;;;4.53;;
48805;SDS011;34625;47.176;27.548;2023-03-08T06:13:39;10.38;;;4.63;;
48805;SDS011;34625;47.176;27.548;2023-03-08T06:16:06;9.30;;;4.53;;
48805;SDS011;34625;47.176;27.548;2023-03-08T06:18:34;9.13;;;4.57;;
48805;SDS011;34625;47.176;27.548;2023-03-08T06:21:14;8.13;;;5.55;;
48805;SDS011;34625;47.176;27.548;2023-03-08T06:23:44;11.98;;;6.35;;
48805;SDS011;34625;47.176;27.548;2023-03-08T06:26:10;6.00;;;4.50;;
48805;SDS011;34625;47.176;27.548;2023-03-08T06:28:38;9.45;;;5.47;;
48805;SDS011;34625;47.176;27.548;2023-03-08T06:31:07;12.15;;;6.00;;
48805;SDS011;34625;47.176;27.548;2023-03-08T06:33:36;13.88;;;5.30;;
48805;SDS011;34625;47.176;27.548;2023-03-08T06:38:31;11.95;;;5.22;;
48805;SDS011;34625;47.176;27.548;2023-03-08T06:40:58;14.15;;;5.40;;
48805;SDS011;34625;47.176;27.548;2023-03-08T06:43:25;6.97;;;4.95;;
48805;SDS011;34625;47.176;27.548;2023-03-08T06:45:51;9.48;;;6.03;;
48805;SDS011;34625;47.176;27.548;2023-03-08T06:48:18;9.70;;;5.30;;
48805;SDS011;34625;47.176;27.548;2023-03-08T06:50:44;16.00;;;6.60;;
48805;SDS011;34625;47.176;27.548;2023-03-08T06:53:10;16.58;;;7.75;;
48805;SDS011;34625;47.176;27.548;2023-03-08T06:55:52;13.88;;;6.88;;
48805;SDS011;34625;47.176;27.548;2023-03-08T06:58:18;13.15;;;7.00;;
48805;SDS011;34625;47.176;27.548;2023-03-08T07:00:44;11.05;;;6.07;;
48805;SDS011;34625;47.176;27.548;2023-03-08T07:03:11;8.93;;;5.75;;
48805;SDS011;34625;47.176;27.548;2023-03-08T07:05:37;7.38;;;4.97;;
48805;SDS011;34625;47.176;27.548;2023-03-08T07:08:03;8.57;;;5.28;;
48805;SDS011;34625;47.176;27.548;2023-03-08T07:10:30;9.48;;;4.47;;
48805;SDS011;34625;47.176;27.548;2023-03-08T07:12:56;9.52;;;5.53;;
48805;SDS011;34625;47.176;27.548;2023-03-08T07:15:22;9.60;;;4.72;;
48805;SDS011;34625;47.176;27.548;2023-03-08T07:17:49;7.82;;;4.13;;
48805;SDS011;34625;47.176;27.548;2023-03-08T07:20:20;8.10;;;3.95;;
48805;SDS011;34625;47.176;27.548;2023-03-08T07:22:47;8.40;;;5.22;;
48805;SDS011;34625;47.176;27.548;2023-03-08T07:25:14;9.60;;;5.43;;
48805;SDS011;34625;47.176;27.548;2023-03-08T07:27:41;8.55;;;4.75;;
48805;SDS011;34625;47.176;27.548;2023-03-08T07:30:08;7.43;;;4.45;;
48805;SDS011;34625;47.176;27.548;2023-03-08T07:32:35;7.60;;;4.97;;
48805;SDS011;34625;47.176;27.548;2023-03-08T07:35:04;7.18;;;4.53;;
48805;SDS011;34625;47.176;27.548;2023-03-08T07:37:31;6.72;;;4.20;;
48805;SDS011;34625;47.176;27.548;2023-03-08T07:39:57;8.35;;;4.07;;
48805;SDS011;34625;47.176;27.548;2023-03-08T07:42:23;12.75;;;4.75;;
48805;SDS011;34625;47.176;27.548;2023-03-08T07:44:55;11.18;;;4.90;;
48805;SDS011;34625;47.176;27.548;2023-03-08T07:47:21;10.25;;;4.47;;
48805;SDS011;34625;47.176;27.548;2023-03-08T07:49:47;8.02;;;4.38;;
48805;SDS011;34625;47.176;27.548;2023-03-08T07:52:13;14.07;;;4.45;;
48805;SDS011;34625;47.176;27.548;2023-03-08T07:54:39;7.80;;;4.15;;
48805;SDS011;34625;47.176;27.548;2023-03-08T07:57:05;7.75;;;4.07;;
48805;SDS011;34625;47.176;27.548;2023-03-08T07:59:31;7.70;;;4.45;;
48805;SDS011;34625;47.176;27.548;2023-03-08T08:01:57;11.25;;;4.85;;
48805;SDS011;34625;47.176;27.548;2023-03-08T08:04:23;17.85;;;4.55;;
48805;SDS011;34625;47.176;27.548;2023-03-08T08:06:49;16.83;;;5.57;;
48805;SDS011;34625;47.176;27.548;2023-03-08T08:09:15;11.63;;;6.50;;
48805;SDS011;34625;47.176;27.548;2023-03-08T08:11:42;13.52;;;6.35;;
48805;SDS011;34625;47.176;27.548;2023-03-08T08:14:08;9.35;;;6.07;;
48805;SDS011;34625;47.176;27.548;2023-03-08T08:16:34;16.33;;;5.95;;
48805;SDS011;34625;47.176;27.548;2023-03-08T08:19:00;12.00;;;5.82;;
48805;SDS011;34625;47.176;27.548;2023-03-08T08:21:26;9.75;;;6.22;;
48805;SDS011;34625;47.176;27.548;2023-03-08T08:23:52;9.77;;;6.00;;
48805;SDS011;34625;47.176;27.548;2023-03-08T08:26:22;11.93;;;6.13;;
48805;SDS011;34625;47.176;27.548;2023-03-08T08:28:49;12.57;;;6.18;;
48805;SDS011;34625;47.176;27.548;2023-03-08T08:31:18;14.43;;;5.47;;
48805;SDS011;34625;47.176;27.548;2023-03-08T08:33:46;2.45;;;1.95;;
48805;SDS011;34625;47.176;27.548;2023-03-08T08:36:13;0.20;;;0.20;;
48805;SDS011;34625;47.176;27.548;2023-03-08T08:38:41;1.23;;;1.23;;
48805;SDS011;34625;47.176;27.548;2023-03-08T08:41:14;0.70;;;0.70;;
48805;SDS011;34625;47.176;27.548;2023-03-08T08:43:42;3.88;;;1.45;;
48805;SDS011;34625;47.176;27.548;2023-03-08T08:46:09;4.28;;;2.63;;
48805;SDS011;34625;47.176;27.548;2023-03-08T08:48:35;1.85;;;0.77;;
48805;SDS011;34625;47.176;27.548;2023-03-08T08:51:03;2.05;;;1.85;;
48805;SDS011;34625;47.176;27.548;2023-03-08T08:53:30;0.52;;;0.52;;
48805;SDS011;34625;47.176;27.548;2023-03-08T08:55:57;1.13;;;1.13;;
48805;SDS011;34625;47.176;27.548;2023-03-08T08:58:23;11.40;;;6.63;;
48805;SDS011;34625;47.176;27.548;2023-03-08T09:00:50;11.93;;;5.55;;
48805;SDS011;34625;47.176;27.548;2023-03-08T09:03:16;11.27;;;5.95;;
48805;SDS011;34625;47.176;27.548;2023-03-08T09:05:42;11.50;;;5.70;;
48805;SDS011;34625;47.176;27.548;2023-03-08T09:08:09;10.95;;;6.28;;
48805;SDS011;34625;47.176;27.548;2023-03-08T09:10:37;13.30;;;6.28;;
48805;SDS011;34625;47.176;27.548;2023-03-08T09:13:04;14.98;;;6.32;;
48805;SDS011;34625;47.176;27.548;2023-03-08T09:15:31;10.63;;;6.43;;
48805;SDS011;34625;47.176;27.548;2023-03-08T09:17:58;13.82;;;6.95;;
48805;SDS011;34625;47.176;27.548;2023-03-08T09:20:25;18.38;;;6.60;;
48805;SDS011;34625;47.176;27.548;2023-03-08T09:22:51;13.05;;;6.97;;
48805;SDS011;34625;47.176;27.548;2023-03-08T09:25:17;19.23;;;7.07;;
48805;SDS011;34625;47.176;27.548;2023-03-08T09:27:45;14.25;;;6.70;;
48805;SDS011;34625;47.176;27.548;2023-03-08T09:30:13;13.80;;;6.05;;
48805;SDS011;34625;47.176;27.548;2023-03-08T09:32:40;10.32;;;6.00;;
48805;SDS011;34625;47.176;27.548;2023-03-08T09:35:06;11.07;;;4.47;;
48805;SDS011;34625;47.176;27.548;2023-03-08T09:37:32;7.15;;;4.30;;
48805;SDS011;34625;47.176;27.548;2023-03-08T09:39:58;5.43;;;3.47;;
48805;SDS011;34625;47.176;27.548;2023-03-08T09:42:28;6.40;;;3.10;;
48805;SDS011;34625;47.176;27.548;2023-03-08T09:47:40;5.45;;;3.17;;
48805;SDS011;34625;47.176;27.548;2023-03-08T09:50:32;6.20;;;3.55;;
48805;SDS011;34625;47.176;27.548;2023-03-08T09:53:37;5.75;;;3.00;;
48805;SDS011;34625;47.176;27.548;2023-03-08T09:56:13;7.22;;;3.42;;
48805;SDS011;34625;47.176;27.548;2023-03-08T10:01:46;6.18;;;3.90;;
48805;SDS011;34625;47.176;27.548;2023-03-08T10:09:51;8.00;;;3.63;;
48805;SDS011;34625;47.176;27.548;2023-03-08T10:15:21;6.63;;;3.45;;
48805;SDS011;34625;47.176;27.548;2023-03-08T10:20:23;4.70;;;3.17;;
48805;SDS011;34625;47.176;27.548;2023-03-08T10:23:14;4.28;;;2.67;;
48805;SDS011;34625;47.176;27.548;2023-03-08T10:25:40;7.10;;;3.53;;
48805;SDS011;34625;47.176;27.548;2023-03-08T10:28:14;4.35;;;2.75;;
48805;SDS011;34625;47.176;27.548;2023-03-08T10:30:47;3.30;;;2.70;;
48805;SDS011;34625;47.176;27.548;2023-03-08T10:33:14;6.63;;;3.00;;
48805;SDS011;34625;47.176;27.548;2023-03-08T10:35:58;5.05;;;1.42;;
48805;SDS011;34625;47.176;27.548;2023-03-08T10:38:27;2.53;;;1.90;;
48805;SDS011;34625;47.176;27.548;2023-03-08T10:41:03;1.83;;;1.70;;
48805;SDS011;34625;47.176;27.548;2023-03-08T10:46:13;2.10;;;1.73;;
48805;SDS011;34625;47.176;27.548;2023-03-08T10:48:43;3.42;;;2.25;;
48805;SDS011;34625;47.176;27.548;2023-03-08T10:51:15;5.78;;;3.17;;
48805;SDS011;34625;47.176;27.548;2023-03-08T10:53:50;1.35;;;0.68;;
48805;SDS011;34625;47.176;27.548;2023-03-08T10:59:23;0.88;;;0.77;;
48805;SDS011;34625;47.176;27.548;2023-03-08T11:04:37;4.57;;;1.80;;
48805;SDS011;34625;47.176;27.548;2023-03-08T11:07:19;5.32;;;2.45;;
48805;SDS011;34625;47.176;27.548;2023-03-08T11:09:48;2.88;;;1.95;;
48805;SDS011;34625;47.176;27.548;2023-03-08T11:12:21;3.47;;;1.80;;
48805;SDS011;34625;47.176;27.548;2023-03-08T11:14:49;3.17;;;1.23;;
48805;SDS011;34625;47.176;27.548;2023-03-08T11:17:23;5.32;;;2.42;;
48805;SDS011;34625;47.176;27.548;2023-03-08T11:25:13;8.48;;;2.05;;
48805;SDS011;34625;47.176;27.548;2023-03-08T11:42:02;3.00;;;2.10;;
48805;SDS011;34625;47.176;27.548;2023-03-08T11:57:46;2.75;;;2.35;;
48805;SDS011;34625;47.176;27.548;2023-03-08T12:00:32;3.80;;;2.35;;
48805;SDS011;34625;47.176;27.548;2023-03-08T12:03:05;5.07;;;2.47;;
48805;SDS011;34625;47.176;27.548;2023-03-08T12:05:44;6.05;;;2.08;;
48805;SDS011;34625;47.176;27.548;2023-03-08T12:08:16;2.92;;;1.95;;
48805;SDS011;34625;47.176;27.548;2023-03-08T12:11:06;10.18;;;2.80;;
48805;SDS011;34625;47.176;27.548;2023-03-08T12:13:41;9.80;;;2.65;;
48805;SDS011;34625;47.176;27.548;2023-03-08T12:19:18;4.28;;;2.17;;
48805;SDS011;34625;47.176;27.548;2023-03-08T12:32:31;4.22;;;2.05;;
48805;SDS011;34625;47.176;27.548;2023-03-08T12:35:06;4.38;;;1.88;;
48805;SDS011;34625;47.176;27.548;2023-03-08T12:40:44;1.70;;;1.27;;
48805;SDS011;34625;47.176;27.548;2023-03-08T12:43:13;3.45;;;2.25;;
48805;SDS011;34625;47.176;27.548;2023-03-08T12:45:46;3.10;;;2.30;;
48805;SDS011;34625;47.176;27.548;2023-03-08T12:48:27;1.52;;;1.42;;
48805;SDS011;34625;47.176;27.548;2023-03-08T12:56:01;1.38;;;1.27;;
48805;SDS011;34625;47.176;27.548;2023-03-08T12:58:28;11.40;;;1.27;;
48805;SDS011;34625;47.176;27.548;2023-03-08T13:00:56;2.75;;;1.80;;
48805;SDS011;34625;47.176;27.548;2023-03-08T13:11:41;3.65;;;1.20;;
48805;SDS011;34625;47.176;27.548;2023-03-08T13:14:37;1.42;;;1.08;;
48805;SDS011;34625;47.176;27.548;2023-03-08T13:19:58;3.15;;;1.40;;
48805;SDS011;34625;47.176;27.548;2023-03-08T13:25:24;0.82;;;0.80;;
48805;SDS011;34625;47.176;27.548;2023-03-08T13:28:12;3.08;;;1.33;;
48805;SDS011;34625;47.176;27.548;2023-03-08T13:36:15;2.47;;;1.42;;
48805;SDS011;34625;47.176;27.548;2023-03-08T13:38:53;4.30;;;1.40;;
48805;SDS011;34625;47.176;27.548;2023-03-08T13:41:36;1.65;;;1.50;;
48805;SDS011;34625;47.176;27.548;2023-03-08T13:44:04;5.28;;;2.00;;
48805;SDS011;34625;47.176;27.548;2023-03-08T13:46:41;3.15;;;1.40;;
48805;SDS011;34625;47.176;27.548;2023-03-08T13:49:11;2.20;;;1.75;;
48805;SDS011;34625;47.176;27.548;2023-03-08T13:51:45;2.25;;;1.25;;
48805;SDS011;34625;47.176;27.548;2023-03-08T13:54:14;2.35;;;1.23;;
48805;SDS011;34625;47.176;27.548;2023-03-08T13:56:51;2.42;;;1.25;;
48805;SDS011;34625;47.176;27.548;2023-03-08T13:59:18;5.60;;;1.30;;
48805;SDS011;34625;47.176;27.548;2023-03-08T14:01:46;3.50;;;1.33;;
48805;SDS011;34625;47.176;27.548;2023-03-08T14:04:21;2.53;;;1.80;;
48805;SDS011;34625;47.176;27.548;2023-03-08T14:06:49;1.17;;;1.08;;
48805;SDS011;34625;47.176;27.548;2023-03-08T14:09:17;1.40;;;1.30;;
48805;SDS011;34625;47.176;27.548;2023-03-08T14:11:43;2.15;;;1.45;;
48805;SDS011;34625;47.176;27.548;2023-03-08T14:14:16;1.75;;;0.95;;
48805;SDS011;34625;47.176;27.548;2023-03-08T14:17:04;1.40;;;1.25;;
48805;SDS011;34625;47.176;27.548;2023-03-08T14:19:34;3.33;;;1.40;;
48805;SDS011;34625;47.176;27.548;2023-03-08T14:22:13;5.67;;;1.90;;
48805;SDS011;34625;47.176;27.548;2023-03-08T14:24:42;6.88;;;1.40;;
48805;SDS011;34625;47.176;27.548;2023-03-08T14:29:42;1.70;;;1.60;;
48805;SDS011;34625;47.176;27.548;2023-03-08T14:37:25;1.88;;;1.33;;
48805;SDS011;34625;47.176;27.548;2023-03-08T14:40:14;3.53;;;1.60;;
48805;SDS011;34625;47.176;27.548;2023-03-08T14:42:48;2.40;;;1.50;;
48805;SDS011;34625;47.176;27.548;2023-03-08T14:45:36;2.45;;;1.88;;
48805;SDS011;34625;47.176;27.548;2023-03-08T14:53:43;2.38;;;1.73;;
48805;SDS011;34625;47.176;27.548;2023-03-08T14:56:19;1.65;;;1.55;;
48805;SDS011;34625;47.176;27.548;2023-03-08T14:58:46;2.53;;;1.70;;
48805;SDS011;34625;47.176;27.548;2023-03-08T15:01:28;3.83;;;2.00;;
48805;SDS011;34625;47.176;27.548;2023-03-08T15:03:56;2.05;;;1.67;;
48805;SDS011;34625;47.176;27.548;2023-03-08T15:06:24;4.30;;;1.88;;
48805;SDS011;34625;47.176;27.548;2023-03-08T15:08:58;3.60;;;1.63;;
48805;SDS011;34625;47.176;27.548;2023-03-08T15:11:25;5.50;;;2.00;;
48805;SDS011;34625;47.176;27.548;2023-03-08T15:13:57;5.00;;;2.20;;
48805;SDS011;34625;47.176;27.548;2023-03-08T15:16:23;2.97;;;2.55;;
48805;SDS011;34625;47.176;27.548;2023-03-08T15:18:49;3.60;;;2.35;;
48805;SDS011;34625;47.176;27.548;2023-03-08T15:21:17;2.85;;;2.33;;
48805;SDS011;34625;47.176;27.548;2023-03-08T15:23:51;7.07;;;2.83;;
48805;SDS011;34625;47.176;27.548;2023-03-08T15:26:22;4.97;;;2.60;;
48805;SDS011;34625;47.176;27.548;2023-03-08T15:28:50;3.70;;;2.40;;
48805;SDS011;34625;47.176;27.548;2023-03-08T15:31:16;11.38;;;3.15;;
48805;SDS011;34625;47.176;27.548;2023-03-08T15:33:42;7.00;;;2.47;;
48805;SDS011;34625;47.176;27.548;2023-03-08T15:36:10;4.45;;;2.42;;
48805;SDS011;34625;47.176;27.548;2023-03-08T15:38:39;3.75;;;2.25;;
48805;SDS011;34625;47.176;27.548;2023-03-08T15:41:05;5.38;;;2.95;;
48805;SDS011;34625;47.176;27.548;2023-03-08T15:43:34;2.75;;;2.55;;
48805;SDS011;34625;47.176;27.548;2023-03-08T15:46:00;4.53;;;2.80;;
48805;SDS011;34625;47.176;27.548;2023-03-08T15:48:26;5.55;;;2.70;;
48805;SDS011;34625;47.176;27.548;2023-03-08T15:50:52;6.78;;;3.20;;
48805;SDS011;34625;47.176;27.548;2023-03-08T15:53:21;8.57;;;3.10;;
48805;SDS011;34625;47.176;27.548;2023-03-08T15:55:47;3.63;;;2.72;;
48805;SDS011;34625;47.176;27.548;2023-03-08T15:58:14;4.55;;;2.92;;
48805;SDS011;34625;47.176;27.548;2023-03-08T16:00:40;3.42;;;2.47;;
48805;SDS011;34625;47.176;27.548;2023-03-08T16:03:06;6.65;;;3.35;;
48805;SDS011;34625;47.176;27.548;2023-03-08T16:05:32;5.70;;;2.72;;
48805;SDS011;34625;47.176;27.548;2023-03-08T16:07:59;4.00;;;2.78;;
48805;SDS011;34625;47.176;27.548;2023-03-08T16:10:27;6.40;;;3.05;;
48805;SDS011;34625;47.176;27.548;2023-03-08T16:12:54;6.15;;;3.55;;
48805;SDS011;34625;47.176;27.548;2023-03-08T16:15:20;7.82;;;3.05;;
48805;SDS011;34625;47.176;27.548;2023-03-08T16:17:47;7.72;;;3.20;;
48805;SDS011;34625;47.176;27.548;2023-03-08T16:20:13;6.53;;;3.03;;
48805;SDS011;34625;47.176;27.548;2023-03-08T16:22:40;6.32;;;3.53;;
48805;SDS011;34625;47.176;27.548;2023-03-08T16:25:07;5.07;;;2.97;;
48805;SDS011;34625;47.176;27.548;2023-03-08T16:27:34;4.78;;;3.72;;
48805;SDS011;34625;47.176;27.548;2023-03-08T16:30:00;9.27;;;4.10;;
48805;SDS011;34625;47.176;27.548;2023-03-08T16:32:26;9.00;;;2.97;;
48805;SDS011;34625;47.176;27.548;2023-03-08T16:34:58;3.47;;;2.40;;
48805;SDS011;34625;47.176;27.548;2023-03-08T16:37:25;5.28;;;2.90;;
48805;SDS011;34625;47.176;27.548;2023-03-08T16:39:52;4.35;;;2.80;;
48805;SDS011;34625;47.176;27.548;2023-03-08T16:42:18;6.30;;;3.40;;
48805;SDS011;34625;47.176;27.548;2023-03-08T16:44:50;4.57;;;2.55;;
48805;SDS011;34625;47.176;27.548;2023-03-08T16:47:17;4.45;;;3.10;;